Time;durP1;ratioP1;P1;durP2;ratioP2;P2;SDS_P1;SDS_P2;PMS_P1;PMS_P2;Temp;Humidity;BMP_temperature;BMP_pressure;BME280_temperature;BME280_humidity;BME280_pressure;Samples;Min_cycle;Max_cycle;Signal;HPM_P1;HPM_P2
2023/04/03 00:06:34;;;;;;;6.30;2.00;;;;;;;-0.89;92.79;100075.88;439514;1251;139955;-70
2023/04/03 00:16:40;;;;;;;4.10;1.80;;;;;;;-0.90;92.57;100087.08;439380;1251;139666;-69
2023/04/03 00:26:46;;;;;;;2.60;1.60;;;;;;;-1.01;91.83;100087.15;436599;1254;138806;-69
2023/04/03 00:36:52;;;;;;;4.90;1.50;;;;;;;-1.13;91.40;100094.80;436696;1254;140342;-68
2023/04/03 00:46:58;;;;;;;4.70;2.30;;;;;;;-1.24;91.37;100099.87;437127;1254;139093;-70
2023/04/03 00:57:06;;;;;;;2.40;1.70;;;;;;;-1.35;90.83;100099.60;436636;1251;139982;-68
2023/04/03 01:07:16;;;;;;;3.90;1.70;;;;;;;-1.54;90.95;100099.39;437056;1254;139851;-69
2023/04/03 01:17:33;;;;;;;4.80;2.00;;;;;;;-1.67;90.87;100104.26;439073;1251;139083;-69
2023/04/03 01:27:39;;;;;;;3.70;1.90;;;;;;;-1.78;90.87;100108.27;437422;1253;139797;-69
2023/04/03 01:37:43;;;;;;;;;;;;;;;-1.91;90.69;100117.42;436531;1249;139392;-69
2023/04/03 01:47:49;;;;;;;3.50;1.50;;;;;;;-2.05;90.86;100120.91;436578;1254;125474;-69
2023/04/03 01:57:55;;;;;;;3.30;1.90;;;;;;;-2.16;90.96;100124.38;436583;1251;138812;-69
2023/04/03 02:08:00;;;;;;;;;;;;;;;-2.24;90.90;100136.56;436458;1254;140697;-69
2023/04/03 02:18:06;;;;;;;4.20;1.80;;;;;;;-2.33;90.70;100139.85;437133;1250;125489;-70
2023/04/03 02:28:12;;;;;;;2.90;2.40;;;;;;;-2.39;90.68;100142.79;436626;1253;138859;-70
2023/04/03 02:38:18;;;;;;;6.30;1.90;;;;;;;-2.39;90.65;100151.19;437155;1251;139394;-69
2023/04/03 02:48:24;;;;;;;3.50;1.60;;;;;;;-2.39;90.53;100157.87;436865;1251;139562;-69
2023/04/03 02:58:30;;;;;;;5.00;1.60;;;;;;;-2.36;90.30;100169.35;436536;1251;140141;-69
2023/04/03 03:08:37;;;;;;;1.70;1.20;;;;;;;-2.35;90.13;100176.90;437284;1251;139905;-67
2023/04/03 03:18:43;;;;;;;3.00;1.60;;;;;;;-2.34;89.82;100184.27;437048;1250;139126;-70
2023/04/03 03:28:49;;;;;;;3.70;2.30;;;;;;;-2.33;89.70;100189.77;439334;1251;140156;-69
2023/04/03 03:38:55;;;;;;;6.00;1.60;;;;;;;-2.33;89.57;100196.62;437224;1250;140204;-68
2023/04/03 03:49:01;;;;;;;2.90;2.10;;;;;;;-2.38;89.35;100199.88;436994;1253;139253;-69
2023/04/03 03:59:06;;;;;;;1.90;1.80;;;;;;;-2.44;89.25;100202.46;436975;1251;141294;-69
2023/04/03 04:09:12;;;;;;;6.40;2.20;;;;;;;-2.51;89.13;100212.92;436492;1252;139925;-68
2023/04/03 04:19:18;;;;;;;2.50;2.00;;;;;;;-2.59;89.00;100213.61;436813;1250;139166;-69
2023/04/03 04:29:25;;;;;;;4.40;2.10;;;;;;;-2.62;88.80;100227.67;436187;1254;140029;-68
2023/04/03 04:39:31;;;;;;;3.00;2.30;;;;;;;-2.60;88.73;100235.39;436096;1251;139543;-69
2023/04/03 04:49:37;;;;;;;3.90;2.30;;;;;;;-2.53;88.62;100237.79;436055;1251;139627;-70
2023/04/03 04:59:43;;;;;;;5.60;3.20;;;;;;;-2.41;88.45;100241.55;436265;1251;139584;-70
2023/04/03 05:09:49;;;;;;;4.30;2.50;;;;;;;-2.37;88.20;100247.05;436010;1254;139511;-68
2023/04/03 05:19:54;;;;;;;2.90;2.00;;;;;;;-2.00;87.91;100255.41;436109;1251;140366;-69
2023/04/03 05:30:01;;;;;;;2.70;1.90;;;;;;;-0.90;86.94;100262.73;438447;1252;139435;-70
2023/04/03 05:40:09;;;;;;;3.40;2.20;;;;;;;4.90;86.36;100257.66;438688;1250;138945;-70
2023/04/03 05:50:15;;;;;;;6.10;2.60;;;;;;;11.26;76.31;100253.34;445194;1250;139161;-69
2023/04/03 06:00:22;;;;;;;3.90;2.20;;;;;;;14.50;68.91;100245.76;436903;1253;139901;-70
2023/04/03 06:10:28;;;;;;;2.80;2.10;;;;;;;16.92;55.81;100245.63;438127;1250;138772;-70
2023/04/03 06:20:34;;;;;;;2.60;2.40;;;;;;;18.96;51.63;100242.27;438905;1250;141538;-68
2023/04/03 06:30:40;;;;;;;4.20;2.20;;;;;;;20.12;47.30;100244.86;437061;1251;138871;-70
2023/04/03 06:40:46;;;;;;;3.80;2.20;;;;;;;19.63;42.48;100262.23;439173;1250;138448;-70
2023/04/03 06:50:53;;;;;;;1.80;1.60;;;;;;;20.70;41.16;100269.81;439374;1251;139381;-71
2023/04/03 07:00:59;;;;;;;3.00;2.40;;;;;;;21.86;37.58;100269.16;439641;1253;139610;-70
2023/04/03 07:11:06;;;;;;;3.20;2.90;;;;;;;21.21;35.24;100281.63;438476;1250;139403;-70
2023/04/03 07:21:11;;;;;;;4.60;2.50;;;;;;;21.50;34.19;100291.67;439190;1250;139766;-70
2023/04/03 07:31:18;;;;;;;3.80;2.40;;;;;;;22.19;32.20;100301.17;438925;1250;139232;-71
2023/04/03 07:41:24;;;;;;;1.40;1.20;;;;;;;21.92;30.25;100304.11;437060;1251;138461;-70
2023/04/03 07:51:31;;;;;;;3.20;1.80;;;;;;;22.05;29.73;100323.11;436870;1253;138937;-69
2023/04/03 08:01:37;;;;;;;2.50;2.30;;;;;;;22.06;28.43;100333.15;437705;1251;139531;-69
2023/04/03 08:11:43;;;;;;;2.80;1.70;;;;;;;20.68;27.78;100338.42;436821;1251;138334;-70
2023/04/03 08:21:49;;;;;;;2.40;1.20;;;;;;;21.35;28.09;100350.65;437016;1251;140869;-70
2023/04/03 08:31:55;;;;;;;2.30;1.70;;;;;;;19.63;27.77;100355.81;436665;1251;139375;-69
2023/04/03 08:42:08;;;;;;;5.20;2.40;;;;;;;20.07;27.49;100357.22;437171;1252;138892;-69
2023/04/03 08:52:18;;;;;;;3.50;1.60;;;;;;;16.82;27.85;100374.70;437063;1253;138280;-71
2023/04/03 09:02:30;;;;;;;5.60;2.30;;;;;;;9.26;32.13;100382.53;436658;1249;138748;-70
2023/04/03 09:12:42;;;;;;;3.20;1.30;;;;;;;6.77;35.68;100390.52;437287;1253;138359;-70
2023/04/03 09:22:50;;;;;;;1.30;1.20;;;;;;;6.36;37.33;100382.88;437377;1250;138514;-71
2023/04/03 09:32:58;;;;;;;2.30;1.30;;;;;;;5.27;38.46;100393.37;437020;1251;140002;-70
2023/04/03 09:43:22;;;;;;;5.70;1.50;;;;;;;4.96;39.62;100391.31;437231;1250;138401;-69
2023/04/03 09:53:36;;;;;;;1.50;1.10;;;;;;;4.98;39.77;100403.21;437227;1251;138400;-70
2023/04/03 10:03:46;;;;;;;3.40;1.90;;;;;;;5.04;39.90;100410.34;436693;1253;138369;-70
2023/04/03 10:14:00;;;;;;;4.50;1.70;;;;;;;4.85;40.23;100406.01;437585;1251;139481;-70
2023/04/03 10:24:14;;;;;;;3.30;1.50;;;;;;;4.14;41.07;100406.58;437026;1253;138326;-71
2023/04/03 10:34:25;;;;;;;5.00;1.70;;;;;;;3.81;42.42;100404.75;437683;1253;139039;-71
2023/04/03 10:44:40;;;;;;;2.20;1.80;;;;;;;3.76;42.15;100391.19;438469;1251;139127;-71
2023/04/03 10:54:54;;;;;;;5.90;1.80;;;;;;;3.35;42.22;100385.16;438970;1251;138404;-71
2023/04/03 11:05:09;;;;;;;1.20;1.10;;;;;;;3.15;42.14;100384.55;437007;1251;139035;-71
2023/04/03 11:15:19;;;;;;;1.70;1.60;;;;;;;3.03;42.23;100390.66;437733;1253;139078;-72
2023/04/03 11:25:26;;;;;;;3.90;2.10;;;;;;;3.21;42.10;100375.08;437415;1253;139297;-71
2023/04/03 11:35:34;;;;;;;3.80;1.20;;;;;;;3.36;42.19;100376.84;437493;1251;138588;-71
2023/04/03 11:45:56;;;;;;;3.30;1.30;;;;;;;3.73;42.32;100363.19;439260;1250;139019;-70
2023/04/03 11:56:04;;;;;;;1.90;1.50;;;;;;;3.92;42.03;100372.11;439392;1250;139231;-72
2023/04/03 12:06:54;;;;;;;1.90;1.10;;;;;;;3.98;41.71;100352.05;438274;1250;138294;-70
2023/04/03 12:17:01;;;;;;;4.90;1.00;;;;;;;4.15;41.59;100362.02;438025;1251;139410;-72
2023/04/03 12:27:27;;;;;;;5.60;1.70;;;;;;;4.11;41.32;100365.42;437878;1251;138995;-70
2023/04/03 12:37:52;;;;;;;3.10;1.30;;;;;;;4.50;41.28;100364.44;438049;1253;138593;-71
2023/04/03 12:47:59;;;;;;;3.70;2.00;;;;;;;4.32;40.86;100353.43;437179;1251;138052;-69
2023/04/03 12:58:21;;;;;;;2.40;0.90;;;;;;;4.30;41.10;100351.42;437865;1253;137999;-71
2023/04/03 13:08:28;;;;;;;2.20;1.30;;;;;;;4.09;41.14;100359.91;438484;1250;139113;-71
2023/04/03 13:18:36;;;;;;;1.60;1.00;;;;;;;3.95;41.52;100370.14;437162;1251;138391;-71
2023/04/03 13:28:43;;;;;;;1.40;1.20;;;;;;;3.66;42.27;100367.85;437233;1253;138087;-71
2023/04/03 13:38:58;;;;;;;;;;;;;;;3.69;42.46;100357.58;437079;1250;138838;-70
2023/04/03 13:49:21;;;;;;;2.30;1.30;;;;;;;3.79;42.48;100359.10;437332;1250;124953;-69
2023/04/03 13:59:31;;;;;;;3.10;1.30;;;;;;;3.65;42.50;100360.79;436726;1250;138809;-71
2023/04/03 14:09:37;;;;;;;2.70;1.40;;;;;;;3.54;42.80;100356.70;439558;1250;138482;-71
2023/04/03 14:19:43;;;;;;;3.00;1.50;;;;;;;3.42;43.12;100350.23;439038;1250;138122;-70
2023/04/03 14:29:50;;;;;;;2.30;1.40;;;;;;;3.43;43.25;100348.12;439734;1251;138597;-72
2023/04/03 14:39:56;;;;;;;;;;;;;;;3.45;43.23;100346.01;439877;1250;138317;-72
2023/04/03 14:50:03;;;;;;;2.40;2.20;;;;;;;3.47;43.13;100347.88;437906;1250;125489;-71
2023/04/03 15:00:16;;;;;;;3.40;1.90;;;;;;;3.24;43.24;100350.79;437031;1251;140327;-70
2023/04/03 15:10:24;;;;;;;2.90;1.40;;;;;;;3.34;43.57;100341.73;439755;1253;138606;-71
2023/04/03 15:20:33;;;;;;;2.80;1.10;;;;;;;3.39;42.92;100337.81;436780;1253;138402;-71
2023/04/03 15:30:41;;;;;;;2.10;1.30;;;;;;;3.20;42.59;100338.92;436863;1253;138947;-71
2023/04/03 15:40:47;;;;;;;2.80;1.70;;;;;;;3.19;42.96;100341.73;437169;1251;138774;-71
2023/04/03 15:50:56;;;;;;;2.10;1.20;;;;;;;3.04;43.27;100343.07;437379;1251;139374;-72
2023/04/03 16:01:04;;;;;;;3.70;2.00;;;;;;;2.95;43.05;100340.66;439823;1250;138185;-71
2023/04/03 16:11:09;;;;;;;;;;;;;;;2.81;43.47;100338.85;439959;1250;138040;-71
2023/04/03 16:21:17;;;;;;;6.70;3.70;;;;;;;2.72;44.55;100346.30;437680;1253;124396;-72
2023/04/03 16:31:25;;;;;;;6.10;3.20;;;;;;;2.57;45.18;100350.38;439016;1254;138466;-71
2023/04/03 16:41:31;;;;;;;7.00;3.30;;;;;;;2.45;45.08;100351.81;439986;1253;138623;-73
2023/04/03 16:51:37;;;;;;;10.50;5.10;;;;;;;2.36;45.65;100354.04;437737;1251;138154;-70
2023/04/03 17:01:42;;;;;;;6.20;2.50;;;;;;;2.26;45.51;100346.10;437170;1251;138689;-70
2023/04/03 17:11:49;;;;;;;5.10;2.80;;;;;;;2.15;45.93;100350.44;437040;1253;138100;-70
2023/04/03 17:21:55;;;;;;;6.50;3.00;;;;;;;2.02;45.95;100357.38;437259;1253;138437;-69
2023/04/03 17:32:01;;;;;;;5.20;2.70;;;;;;;1.95;46.56;100360.60;437197;1256;138419;-70
2023/04/03 17:42:10;;;;;;;5.30;3.30;;;;;;;1.86;48.17;100365.40;439071;1254;138361;-71
2023/04/03 17:52:17;;;;;;;5.50;3.80;;;;;;;1.75;49.15;100376.11;439628;1253;138673;-71
2023/04/03 18:02:23;;;;;;;7.00;3.20;;;;;;;1.62;50.10;100392.00;437493;1256;139079;-71
2023/04/03 18:12:29;;;;;;;7.20;3.30;;;;;;;1.44;51.15;100392.42;436900;1253;139541;-71
2023/04/03 18:22:36;;;;;;;7.00;4.30;;;;;;;1.28;51.84;100394.52;437032;1257;138634;-72
2023/04/03 18:32:42;;;;;;;5.70;3.70;;;;;;;1.12;52.48;100396.43;439910;1253;138565;-71
2023/04/03 18:42:49;;;;;;;6.00;2.90;;;;;;;0.89;53.33;100409.63;436659;1253;138534;-70
2023/04/03 18:52:54;;;;;;;12.40;4.40;;;;;;;0.64;54.42;100412.64;439335;1253;138040;-69
2023/04/03 19:03:00;;;;;;;8.90;3.80;;;;;;;0.40;55.03;100411.83;439007;1254;140070;-69
2023/04/03 19:13:07;;;;;;;6.20;4.50;;;;;;;0.18;56.08;100415.28;437406;1256;138922;-70
2023/04/03 19:23:13;;;;;;;7.10;5.20;;;;;;;-0.02;56.52;100413.88;436968;1251;137956;-69
2023/04/03 19:33:19;;;;;;;7.40;4.90;;;;;;;-0.26;57.03;100413.17;437160;1253;139158;-68
2023/04/03 19:43:24;;;;;;;;;;;;;;;-0.50;57.74;100419.86;436785;1251;138928;-69
2023/04/03 19:53:30;;;;;;;6.60;4.30;;;;;;;-0.67;58.23;100417.00;436958;1253;125532;-68
2023/04/03 20:03:37;;;;;;;6.60;4.50;;;;;;;-0.85;58.64;100426.36;437728;1252;139352;-70
2023/04/03 20:13:43;;;;;;;9.20;5.60;;;;;;;-1.01;59.12;100423.31;437761;1253;139504;-69
2023/04/03 20:23:47;;;;;;;;;;;;;;;-1.15;59.23;100421.80;437659;1253;139468;-73
2023/04/03 20:33:53;;;;;;;8.60;5.00;;;;;;;-1.28;59.81;100424.58;437161;1254;126072;-73
2023/04/03 20:44:00;;;;;;;15.30;7.60;;;;;;;-1.44;60.02;100425.98;437753;1253;138218;-73
2023/04/03 20:54:07;;;;;;;21.90;11.40;;;;;;;-1.57;60.22;100424.44;437687;1251;139321;-71
2023/04/03 21:04:18;;;;;;;14.50;8.40;;;;;;;-1.74;60.60;100434.06;438038;1251;139330;-73
2023/04/03 21:14:59;;;;;;;8.30;4.70;;;;;;;-1.91;61.15;100437.48;437182;1251;139013;-72
2023/04/03 21:25:05;;;;;;;6.90;4.50;;;;;;;-2.00;61.30;100439.54;436693;1253;138724;-73
2023/04/03 21:35:11;;;;;;;6.60;4.40;;;;;;;-2.10;61.72;100433.34;437620;1253;140173;-72
2023/04/03 21:45:17;;;;;;;5.50;3.90;;;;;;;-2.22;62.04;100442.59;438151;1251;139958;-74
2023/04/03 21:55:36;;;;;;;9.20;4.60;;;;;;;-2.34;62.59;100444.95;438125;1251;138805;-73
2023/04/03 22:05:44;;;;;;;6.50;3.70;;;;;;;-2.40;63.15;100434.48;438856;1251;138913;-74
2023/04/03 22:15:50;;;;;;;6.00;4.20;;;;;;;-2.45;63.49;100433.45;437976;1251;139795;-73
2023/04/03 22:26:04;;;;;;;5.90;3.40;;;;;;;-2.55;63.95;100430.48;439471;1250;139560;-73
2023/04/03 22:36:11;;;;;;;4.10;3.20;;;;;;;-2.65;64.38;100437.98;437044;1253;139526;-73
2023/04/03 22:46:17;;;;;;;6.20;4.00;;;;;;;-2.72;64.84;100439.17;437010;1250;140974;-73
2023/04/03 22:56:22;;;;;;;;;;;;;;;-2.83;65.30;100435.87;436851;1253;140089;-73
2023/04/03 23:06:31;;;;;;;7.00;4.00;;;;;;;-2.90;65.65;100436.00;436681;1253;126437;-75
2023/04/03 23:16:37;;;;;;;6.20;3.70;;;;;;;-2.97;66.06;100431.00;437170;1253;140024;-72
2023/04/03 23:26:43;;;;;;;6.10;4.30;;;;;;;-3.05;66.34;100428.90;438198;1250;139532;-73
2023/04/03 23:36:49;;;;;;;5.20;4.10;;;;;;;-3.14;66.49;100428.34;437332;1253;139704;-69
2023/04/03 23:46:56;;;;;;;5.70;4.20;;;;;;;-3.20;66.46;100423.17;437400;1253;140193;-68
2023/04/03 23:57:02;;;;;;;5.80;4.10;;;;;;;-3.28;66.72;100419.01;437663;1253;140736;-69
